Cave Springs, Arkansas
Current Conditions -  °F | °C
As of 6:53 AM on Thursday 30 Oct 2014 (Local Time) from KXNA Reporting Station
Clear Clear  
Wind Chill: 40°   Ceiling: Unl
Heat Index: 40°   Visibility: 10mi
Dew Point: 37°   Wind: 3mph
Humidity: 89%   Direction: 230°SW
Pressure: 30.12"   Gusts: NA
Location:  36.26°N, 94.23°W
Report Text: KXNA 301153Z 23003KT 10SM CLR 04/03 A3012 RMK AO2 SLP200 T00440028 10067 20039 55001
Loading
Personal Weather Stations






























Interactive Weather Map
Tropical Storm Tracking
New forecast layout! Learn more

10-Day Weather Forecast

Advertisements
Track Severe Weather on mobile